createdAt,value
2018-04-08T00:00:08.699Z,14.08
2018-04-08T00:01:08.708Z,14.20
2018-04-08T00:02:08.717Z,14.20
2018-04-08T00:03:08.732Z,14.16
2018-04-08T00:04:08.746Z,14.20
2018-04-08T00:05:08.756Z,14.13
2018-04-08T00:06:08.760Z,14.19
2018-04-08T00:07:08.768Z,14.19
2018-04-08T00:08:08.781Z,14.19
2018-04-08T00:09:08.802Z,14.08
2018-04-08T00:10:08.801Z,14.02
2018-04-08T00:11:08.819Z,14.12
2018-04-08T00:12:08.836Z,14.19
2018-04-08T00:13:08.827Z,14.23
2018-04-08T00:14:08.852Z,14.13
2018-04-08T00:15:08.858Z,14.19
2018-04-08T00:16:08.867Z,14.20
2018-04-08T00:17:08.871Z,14.21
2018-04-08T00:18:08.883Z,14.17
2018-04-08T00:19:08.933Z,14.12
2018-04-08T00:20:08.923Z,14.01
2018-04-08T00:21:08.934Z,14.08
2018-04-08T00:22:08.936Z,14.01
2018-04-08T00:23:08.940Z,14.01
2018-04-08T00:24:08.942Z,14.13
2018-04-08T00:25:08.945Z,14.05
2018-04-08T00:26:08.965Z,14.05
2018-04-08T00:27:08.973Z,13.86
2018-04-08T00:28:08.986Z,13.80
2018-04-08T00:29:09.085Z,13.76
2018-04-08T00:30:09.045Z,13.79
2018-04-08T00:31:09.013Z,13.86
2018-04-08T00:32:09.023Z,13.91
2018-04-08T00:33:09.031Z,13.94
2018-04-08T00:34:09.042Z,13.93
2018-04-08T00:35:09.051Z,13.90
2018-04-08T00:36:09.064Z,13.80
2018-04-08T00:37:09.067Z,13.87
2018-04-08T00:38:09.093Z,13.79
2018-04-08T00:39:09.093Z,13.76
2018-04-08T00:40:09.107Z,13.88
2018-04-08T00:41:09.115Z,13.90
2018-04-08T00:42:09.131Z,13.86
2018-04-08T00:43:09.133Z,13.75
2018-04-08T00:44:09.839Z,13.73
2018-04-08T00:45:09.157Z,13.72
2018-04-08T00:46:09.162Z,13.66
2018-04-08T00:47:09.182Z,13.73
2018-04-08T00:48:09.182Z,13.73
2018-04-08T00:49:09.206Z,13.62
2018-04-08T00:50:09.205Z,13.51
2018-04-08T00:51:09.269Z,13.55
2018-04-08T00:52:09.222Z,13.50
2018-04-08T00:53:09.241Z,13.54
2018-04-08T00:54:09.250Z,13.55
2018-04-08T00:55:09.259Z,13.61
2018-04-08T00:56:09.267Z,13.61
2018-04-08T00:57:09.272Z,13.59
2018-04-08T00:58:09.282Z,13.61
2018-04-08T00:59:09.285Z,13.47
2018-04-08T01:00:09.303Z,13.50
2018-04-08T01:01:09.311Z,13.41
2018-04-08T01:02:09.316Z,13.36
2018-04-08T01:03:09.331Z,13.21
2018-04-08T01:04:09.341Z,13.07
2018-04-08T01:05:09.351Z,13.14
2018-04-08T01:06:09.366Z,13.16
2018-04-08T01:07:09.380Z,13.19
2018-04-08T01:08:09.387Z,13.16
2018-04-08T01:09:09.387Z,13.19
2018-04-08T01:10:09.401Z,13.19
2018-04-08T01:11:09.404Z,13.25
2018-04-08T01:12:09.441Z,13.35
2018-04-08T01:13:09.424Z,13.41
2018-04-08T01:14:09.434Z,13.46
2018-04-08T01:15:09.445Z,13.36
2018-04-08T01:16:09.456Z,13.35
2018-04-08T01:17:09.591Z,13.53
2018-04-08T01:18:09.472Z,13.32
2018-04-08T01:19:09.483Z,13.38
2018-04-08T01:20:09.502Z,13.31
2018-04-08T01:21:09.503Z,13.22
2018-04-08T01:22:09.512Z,13.17
2018-04-08T01:23:09.522Z,13.14
2018-04-08T01:24:09.533Z,13.22
2018-04-08T01:25:09.543Z,13.25
2018-04-08T01:26:09.556Z,13.14
2018-04-08T01:27:09.570Z,13.27
2018-04-08T01:28:09.570Z,13.24
2018-04-08T01:29:09.582Z,13.22
2018-04-08T01:30:09.590Z,13.27
2018-04-08T01:31:09.601Z,13.25
2018-04-08T01:32:09.704Z,13.29
2018-04-08T01:33:09.616Z,13.22
2018-04-08T01:34:09.631Z,13.16
2018-04-08T01:35:09.635Z,13.16
2018-04-08T01:36:09.654Z,13.13
2018-04-08T01:37:09.656Z,13.16
2018-04-08T01:38:09.682Z,13.07
2018-04-08T01:39:09.682Z,13.09
2018-04-08T01:40:09.688Z,13.06
2018-04-08T01:41:09.704Z,13.04
2018-04-08T01:42:09.771Z,13.14
2018-04-08T01:43:09.720Z,13.06
2018-04-08T01:44:09.722Z,13.03
2018-04-08T01:45:09.737Z,13.09
2018-04-08T01:46:09.782Z,13.06
2018-04-08T01:47:09.753Z,13.07
2018-04-08T01:48:09.759Z,13.06
2018-04-08T01:49:09.769Z,13.09
2018-04-08T01:50:09.785Z,13.07
2018-04-08T01:51:09.787Z,13.07
2018-04-08T01:52:09.798Z,13.04
2018-04-08T01:53:09.807Z,13.03
2018-04-08T01:54:09.814Z,13.03
2018-04-08T01:55:09.844Z,13.09
2018-04-08T01:56:09.839Z,13.01
2018-04-08T01:57:09.844Z,13.07
2018-04-08T01:58:09.852Z,13.09
2018-04-08T01:59:09.863Z,12.99
2018-04-08T02:00:09.887Z,12.91
2018-04-08T02:01:09.883Z,12.94
2018-04-08T02:02:09.893Z,12.91
2018-04-08T02:03:09.929Z,13.04
2018-04-08T02:04:09.919Z,13.03
2018-04-08T02:05:09.961Z,12.87
2018-04-08T02:06:09.925Z,12.91
2018-04-08T02:07:09.935Z,12.94
2018-04-08T02:08:09.950Z,12.88
2018-04-08T02:09:09.958Z,12.91
2018-04-08T02:10:09.963Z,12.88
2018-04-08T02:11:09.977Z,12.88
2018-04-08T02:12:09.987Z,12.81
2018-04-08T02:13:09.996Z,12.76
2018-04-08T02:14:10.010Z,12.74
2018-04-08T02:15:10.861Z,12.71
2018-04-08T02:16:10.026Z,12.66
2018-04-08T02:17:10.043Z,12.71
2018-04-08T02:18:10.052Z,12.70
2018-04-08T02:19:10.057Z,12.69
2018-04-08T02:20:10.149Z,12.67
2018-04-08T02:21:10.069Z,12.66
2018-04-08T02:22:10.080Z,12.66
2018-04-08T02:23:10.087Z,12.61
2018-04-08T02:24:10.096Z,12.66
2018-04-08T02:25:10.102Z,12.69
2018-04-08T02:26:10.114Z,12.62
2018-04-08T02:27:10.122Z,12.61
2018-04-08T02:28:10.132Z,12.66
2018-04-08T02:29:10.143Z,12.55
2018-04-08T02:30:10.203Z,12.58
2018-04-08T02:31:10.163Z,12.46
2018-04-08T02:32:10.176Z,12.44
2018-04-08T02:33:10.180Z,12.54
2018-04-08T02:34:10.195Z,12.52
2018-04-08T02:35:10.199Z,12.44
2018-04-08T02:36:10.201Z,12.48
2018-04-08T02:37:10.224Z,12.52
2018-04-08T02:38:10.226Z,12.44
2018-04-08T02:39:10.228Z,12.44
2018-04-08T02:40:10.249Z,12.37
2018-04-08T02:41:10.256Z,12.48
2018-04-08T02:42:10.264Z,12.38
2018-04-08T02:43:10.289Z,12.40
2018-04-08T02:44:10.282Z,12.40
2018-04-08T02:45:10.299Z,12.36
2018-04-08T02:46:10.295Z,12.34
2018-04-08T02:47:10.310Z,12.38
2018-04-08T02:48:10.312Z,12.36
2018-04-08T02:49:10.323Z,12.37
2018-04-08T02:50:10.354Z,12.36
2018-04-08T02:51:10.343Z,12.34
2018-04-08T02:52:10.347Z,12.31
2018-04-08T02:53:10.453Z,12.21
2018-04-08T02:54:10.370Z,12.23
2018-04-08T02:55:10.386Z,12.33
2018-04-08T02:56:10.390Z,12.31
2018-04-08T02:57:10.398Z,12.37
2018-04-08T02:58:10.405Z,12.34
2018-04-08T02:59:10.409Z,12.23
2018-04-08T03:00:10.437Z,12.25
2018-04-08T03:01:10.435Z,12.19
2018-04-08T03:02:10.437Z,12.22
2018-04-08T03:03:10.528Z,12.07
2018-04-08T03:04:10.456Z,12.16
2018-04-08T03:05:10.471Z,12.12
2018-04-08T03:06:10.483Z,12.15
2018-04-08T03:07:10.481Z,12.04
2018-04-08T03:08:10.513Z,12.08
2018-04-08T03:09:10.503Z,12.07
2018-04-08T03:10:10.518Z,12.03
2018-04-08T03:11:10.527Z,12.00
2018-04-08T03:12:10.529Z,11.93
2018-04-08T03:13:10.585Z,11.94
2018-04-08T03:14:10.554Z,12.03
2018-04-08T03:15:10.557Z,12.03
2018-04-08T03:16:10.564Z,12.05
2018-04-08T03:17:10.570Z,12.12
2018-04-08T03:18:11.374Z,12.03
2018-04-08T03:19:10.588Z,11.97
2018-04-08T03:20:10.602Z,11.85
2018-04-08T03:21:10.612Z,11.78
2018-04-08T03:22:10.618Z,11.78
2018-04-08T03:23:10.637Z,11.84
2018-04-08T03:24:10.640Z,11.82
2018-04-08T03:25:10.649Z,11.84
2018-04-08T03:26:10.652Z,11.67
2018-04-08T03:27:10.660Z,11.70
2018-04-08T03:28:10.668Z,11.69
2018-04-08T03:29:10.684Z,11.64
2018-04-08T03:30:10.691Z,11.66
2018-04-08T03:31:10.741Z,11.66
2018-04-08T03:32:10.716Z,11.74
2018-04-08T03:33:10.718Z,11.72
2018-04-08T03:34:10.729Z,11.66
2018-04-08T03:35:10.731Z,11.63
2018-04-08T03:36:10.738Z,11.74
2018-04-08T03:37:10.746Z,11.60
2018-04-08T03:38:10.779Z,11.51
2018-04-08T03:39:10.770Z,11.44
2018-04-08T03:40:10.777Z,11.44
2018-04-08T03:41:10.798Z,11.48
2018-04-08T03:42:10.801Z,11.39
2018-04-08T03:43:10.798Z,11.38
2018-04-08T03:44:10.812Z,11.41
2018-04-08T03:45:10.816Z,11.33
2018-04-08T03:46:10.832Z,11.38
2018-04-08T03:47:10.834Z,11.39
2018-04-08T03:48:10.849Z,11.35
2018-04-08T03:49:10.851Z,11.33
2018-04-08T03:50:10.856Z,11.35
2018-04-08T03:51:10.954Z,11.33
2018-04-08T03:52:10.877Z,11.36
2018-04-08T03:53:10.884Z,11.26
2018-04-08T03:54:10.891Z,11.38
2018-04-08T03:55:10.902Z,11.31
2018-04-08T03:56:10.910Z,11.33
2018-04-08T03:57:10.924Z,11.36
2018-04-08T03:58:10.922Z,11.36
2018-04-08T03:59:10.941Z,11.38
2018-04-08T04:00:10.955Z,11.30
2018-04-08T04:01:10.959Z,11.31
2018-04-08T04:02:10.966Z,11.48
2018-04-08T04:03:10.966Z,11.44
2018-04-08T04:04:10.975Z,11.45
2018-04-08T04:05:10.990Z,11.48
2018-04-08T04:06:11.884Z,11.48
2018-04-08T04:07:11.003Z,11.63
2018-04-08T04:08:11.008Z,11.49
2018-04-08T04:09:11.020Z,11.42
2018-04-08T04:10:11.029Z,11.41
2018-04-08T04:11:11.033Z,11.42
2018-04-08T04:12:11.046Z,11.42
2018-04-08T04:13:11.055Z,11.38
2018-04-08T04:14:11.065Z,11.41
2018-04-08T04:15:11.113Z,11.39
2018-04-08T04:16:11.089Z,11.31
2018-04-08T04:17:11.101Z,11.30
2018-04-08T04:18:11.112Z,11.28
2018-04-08T04:19:11.472Z,11.33
2018-04-08T04:20:11.291Z,11.27
2018-04-08T04:21:11.127Z,11.31
2018-04-08T04:22:11.182Z,11.26
2018-04-08T04:23:11.161Z,11.20
2018-04-08T04:24:11.168Z,11.23
2018-04-08T04:25:11.163Z,11.27
2018-04-08T04:26:11.170Z,11.31
2018-04-08T04:27:11.182Z,11.17
2018-04-08T04:28:11.212Z,11.19
2018-04-08T04:29:11.232Z,11.13
2018-04-08T04:30:11.230Z,11.21
2018-04-08T04:31:11.232Z,11.16
2018-04-08T04:32:11.231Z,11.24
2018-04-08T04:33:11.226Z,11.28
2018-04-08T04:34:11.278Z,11.26
2018-04-08T04:35:11.515Z,11.19
2018-04-08T04:36:11.276Z,11.21
2018-04-08T04:37:11.383Z,11.11
2018-04-08T04:38:11.520Z,11.12
2018-04-08T04:39:11.545Z,11.12
2018-04-08T04:40:11.534Z,11.01
2018-04-08T04:41:11.381Z,11.05
2018-04-08T04:42:11.507Z,11.09
2018-04-08T04:43:11.348Z,11.12
2018-04-08T04:44:11.313Z,11.12
2018-04-08T04:45:11.329Z,11.16
2018-04-08T04:46:11.333Z,11.13
2018-04-08T04:47:11.332Z,11.13
2018-04-08T04:48:11.344Z,11.11
2018-04-08T04:49:11.373Z,10.99
2018-04-08T04:50:11.363Z,10.95
2018-04-08T04:51:11.418Z,11.03
2018-04-08T04:52:11.379Z,10.95
2018-04-08T04:53:11.390Z,10.98
2018-04-08T04:54:11.396Z,11.02
2018-04-08T04:55:11.402Z,11.01
2018-04-08T04:56:11.410Z,11.01
2018-04-08T04:57:11.453Z,11.02
2018-04-08T04:58:11.449Z,11.05
2018-04-08T04:59:11.497Z,11.02
2018-04-08T05:00:11.511Z,11.06
2018-04-08T05:01:11.487Z,11.01
2018-04-08T05:02:11.458Z,10.94
2018-04-08T05:03:11.472Z,11.01
2018-04-08T05:04:11.474Z,11.02
2018-04-08T05:05:11.482Z,10.99
2018-04-08T05:06:11.492Z,11.08
2018-04-08T05:07:11.573Z,11.02
2018-04-08T05:08:11.514Z,10.99
2018-04-08T05:09:11.514Z,11.01
2018-04-08T05:10:11.534Z,10.99
2018-04-08T05:11:11.536Z,11.01
2018-04-08T05:12:11.540Z,11.11
2018-04-08T05:13:11.542Z,11.13
2018-04-08T05:14:11.554Z,11.16
2018-04-08T05:15:11.564Z,11.20
2018-04-08T05:16:11.573Z,11.12
2018-04-08T05:17:11.577Z,11.12
2018-04-08T05:18:11.607Z,11.09
2018-04-08T05:19:11.599Z,11.19
2018-04-08T05:20:11.604Z,11.23
2018-04-08T05:21:11.624Z,11.31
2018-04-08T05:22:11.626Z,11.30
2018-04-08T05:23:11.655Z,11.28
2018-04-08T05:24:11.642Z,11.26
2018-04-08T05:25:11.648Z,11.35
2018-04-08T05:26:11.656Z,11.46
2018-04-08T05:27:11.667Z,11.33
2018-04-08T05:28:11.678Z,11.38
2018-04-08T05:29:11.673Z,11.42
2018-04-08T05:30:11.686Z,11.42
2018-04-08T05:31:11.692Z,11.38
2018-04-08T05:32:11.701Z,11.36
2018-04-08T05:33:11.704Z,11.39
2018-04-08T05:34:11.716Z,11.42
2018-04-08T05:35:11.722Z,11.45
2018-04-08T05:36:11.746Z,11.48
2018-04-08T05:37:11.741Z,11.48
2018-04-08T05:38:11.748Z,11.44
2018-04-08T05:39:11.757Z,11.49
2018-04-08T05:40:11.764Z,11.48
2018-04-08T05:41:11.772Z,11.54
2018-04-08T05:42:11.784Z,11.60
2018-04-08T05:43:11.796Z,11.53
2018-04-08T05:44:11.800Z,11.56
2018-04-08T05:45:11.806Z,11.56
2018-04-08T05:46:11.817Z,11.63
2018-04-08T05:47:11.822Z,11.57
2018-04-08T05:48:11.875Z,11.60
2018-04-08T05:49:11.837Z,11.72
2018-04-08T05:50:11.846Z,11.79
2018-04-08T05:51:11.869Z,11.77
2018-04-08T05:52:11.875Z,11.69
2018-04-08T05:53:11.877Z,11.75
2018-04-08T05:54:11.885Z,11.75
2018-04-08T05:55:11.885Z,11.81
2018-04-08T05:56:11.897Z,11.79
2018-04-08T05:57:11.903Z,11.67
2018-04-08T05:58:11.965Z,11.72
2018-04-08T05:59:11.922Z,11.81
2018-04-08T06:00:11.933Z,11.77
2018-04-08T06:01:11.942Z,11.82
2018-04-08T06:02:11.943Z,11.82
2018-04-08T06:03:11.956Z,11.82
2018-04-08T06:04:11.959Z,11.84
2018-04-08T06:05:11.969Z,11.79
2018-04-08T06:06:11.974Z,11.85
2018-04-08T06:07:11.985Z,11.90
2018-04-08T06:08:11.999Z,11.93
2018-04-08T06:09:12.002Z,11.94
2018-04-08T06:10:12.062Z,11.85
2018-04-08T06:11:12.066Z,11.88
2018-04-08T06:12:12.027Z,11.94
2018-04-08T06:13:12.034Z,12.00
2018-04-08T06:14:12.044Z,11.98
2018-04-08T06:15:12.049Z,12.03
2018-04-08T06:16:12.071Z,11.94
2018-04-08T06:17:12.075Z,11.93
2018-04-08T06:18:12.089Z,11.84
2018-04-08T06:19:12.081Z,11.87
2018-04-08T06:20:12.108Z,11.84
2018-04-08T06:21:12.140Z,11.81
2018-04-08T06:22:12.116Z,11.88
2018-04-08T06:23:12.126Z,11.94
2018-04-08T06:24:12.137Z,11.98
2018-04-08T06:25:12.139Z,12.01
2018-04-08T06:26:12.157Z,12.11
2018-04-08T06:27:12.148Z,12.11
2018-04-08T06:28:12.159Z,12.12
2018-04-08T06:29:12.180Z,12.21
2018-04-08T06:30:12.187Z,12.18
2018-04-08T06:31:12.183Z,12.23
2018-04-08T06:32:12.193Z,12.19
2018-04-08T06:33:12.203Z,12.19
2018-04-08T06:34:12.219Z,12.22
2018-04-08T06:35:12.222Z,12.31
2018-04-08T06:36:12.914Z,12.25
2018-04-08T06:37:12.237Z,12.16
2018-04-08T06:38:12.242Z,12.36
2018-04-08T06:39:12.250Z,12.31
2018-04-08T06:40:12.264Z,12.37
2018-04-08T06:41:12.292Z,12.36
2018-04-08T06:42:12.294Z,12.33
2018-04-08T06:43:12.308Z,12.33
2018-04-08T06:44:12.306Z,12.41
2018-04-08T06:45:12.315Z,12.49
2018-04-08T06:46:12.404Z,12.40
2018-04-08T06:47:12.326Z,12.46
2018-04-08T06:48:12.330Z,12.41
2018-04-08T06:49:12.338Z,12.43
2018-04-08T06:50:12.355Z,12.48
2018-04-08T06:51:12.353Z,12.54
2018-04-08T06:52:12.364Z,12.51
2018-04-08T06:53:12.373Z,12.44
2018-04-08T06:54:12.380Z,12.38
2018-04-08T06:55:12.384Z,12.48
2018-04-08T06:56:12.397Z,12.38
2018-04-08T06:57:12.409Z,12.40
2018-04-08T06:58:12.418Z,12.51
2018-04-08T06:59:12.446Z,12.51
2018-04-08T07:00:12.432Z,12.46
2018-04-08T07:01:12.441Z,12.49
2018-04-08T07:02:12.446Z,12.58
2018-04-08T07:03:12.456Z,12.58
2018-04-08T07:04:12.474Z,12.62
2018-04-08T07:05:12.496Z,12.63
2018-04-08T07:06:12.490Z,12.66
2018-04-08T07:07:12.493Z,12.67
2018-04-08T07:08:12.500Z,12.74
2018-04-08T07:09:12.533Z,12.80
2018-04-08T07:10:12.546Z,12.80
2018-04-08T07:11:12.527Z,12.79
2018-04-08T07:12:12.534Z,12.88
2018-04-08T07:13:12.540Z,12.98
2018-04-08T07:14:12.552Z,13.07
2018-04-08T07:15:12.562Z,13.14
2018-04-08T07:16:12.575Z,13.03
2018-04-08T07:17:12.584Z,13.13
2018-04-08T07:18:12.588Z,13.12
2018-04-08T07:19:13.431Z,13.13
2018-04-08T07:20:12.601Z,13.17
2018-04-08T07:21:12.614Z,13.13
2018-04-08T07:22:12.620Z,13.21
2018-04-08T07:23:12.631Z,13.27
2018-04-08T07:24:12.754Z,13.31
2018-04-08T07:25:12.652Z,13.39
2018-04-08T07:26:12.660Z,13.43
2018-04-08T07:27:12.668Z,13.47
2018-04-08T07:28:12.683Z,13.54
2018-04-08T07:29:12.690Z,13.51
2018-04-08T07:30:12.701Z,13.63
2018-04-08T07:31:12.716Z,13.65
2018-04-08T07:32:12.708Z,13.68
2018-04-08T07:33:12.721Z,13.71
2018-04-08T07:34:12.728Z,13.76
2018-04-08T07:35:12.737Z,13.69
2018-04-08T07:36:12.749Z,13.79
2018-04-08T07:37:12.787Z,13.88
2018-04-08T07:38:12.764Z,13.91
2018-04-08T07:39:12.772Z,13.98
2018-04-08T07:40:12.792Z,14.08
2018-04-08T07:41:12.799Z,14.09
2018-04-08T07:42:12.807Z,14.19
2018-04-08T07:43:12.815Z,14.24
2018-04-08T07:44:12.831Z,14.26
2018-04-08T07:45:12.834Z,14.21
2018-04-08T07:46:12.843Z,14.38
2018-04-08T07:47:12.867Z,14.35
2018-04-08T07:48:12.860Z,14.48
2018-04-08T07:49:12.872Z,14.42
2018-04-08T07:50:12.881Z,14.54
2018-04-08T07:51:12.892Z,14.56
2018-04-08T07:52:12.897Z,14.66
2018-04-08T07:53:12.904Z,14.80
2018-04-08T07:54:12.915Z,14.79
2018-04-08T07:55:12.935Z,14.86
2018-04-08T07:56:12.943Z,14.93
2018-04-08T07:57:12.956Z,15.03
2018-04-08T07:58:12.957Z,15.11
2018-04-08T07:59:13.008Z,15.22
2018-04-08T08:00:12.982Z,15.20
2018-04-08T08:01:12.989Z,15.31
2018-04-08T08:02:13.000Z,15.44
2018-04-08T08:03:13.005Z,15.43
2018-04-08T08:04:13.016Z,15.48
2018-04-08T08:05:13.030Z,15.52
2018-04-08T08:06:13.036Z,15.60
2018-04-08T08:07:13.190Z,15.74
2018-04-08T08:08:13.082Z,15.77
2018-04-08T08:09:13.067Z,15.80
2018-04-08T08:10:13.088Z,15.81
2018-04-08T08:11:13.147Z,15.85
2018-04-08T08:12:13.103Z,15.92
2018-04-08T08:13:13.114Z,15.92
2018-04-08T08:14:13.124Z,16.03
2018-04-08T08:15:13.140Z,16.04
2018-04-08T08:16:13.152Z,16.04
2018-04-08T08:17:13.148Z,16.10
2018-04-08T08:18:13.202Z,16.14
2018-04-08T08:19:13.184Z,16.18
2018-04-08T08:20:13.186Z,16.11
2018-04-08T08:21:13.192Z,16.16
2018-04-08T08:22:13.940Z,16.04
2018-04-08T08:23:13.225Z,16.10
2018-04-08T08:24:13.232Z,16.10
2018-04-08T08:25:13.243Z,16.08
2018-04-08T08:26:13.252Z,16.10
2018-04-08T08:28:13.278Z,16.06
2018-04-08T08:29:13.286Z,16.10
2018-04-08T08:30:13.293Z,16.01
2018-04-08T08:31:13.303Z,16.03
2018-04-08T08:32:13.317Z,15.98
2018-04-08T08:33:13.332Z,16.04
2018-04-08T08:34:13.347Z,15.98
2018-04-08T08:35:13.385Z,16.04
2018-04-08T08:36:13.375Z,16.07
2018-04-08T08:37:13.373Z,16.10
2018-04-08T08:38:13.400Z,16.07
2018-04-08T08:39:13.396Z,15.95
2018-04-08T08:40:13.408Z,15.93
2018-04-08T08:41:13.423Z,15.92
2018-04-08T08:42:13.426Z,15.99
2018-04-08T08:43:13.431Z,16.16
2018-04-08T08:44:13.452Z,16.08
2018-04-08T08:45:13.495Z,16.18
2018-04-08T08:46:13.484Z,16.17
2018-04-08T08:47:13.480Z,16.10
2018-04-08T08:48:13.495Z,16.25
2018-04-08T08:50:13.535Z,16.22
2018-04-08T08:51:13.532Z,16.25
2018-04-08T08:52:13.539Z,16.27
2018-04-08T08:53:13.546Z,16.25
2018-04-08T08:54:13.572Z,16.29
2018-04-08T08:55:13.652Z,16.30
2018-04-08T08:56:13.678Z,16.25
2018-04-08T08:57:13.720Z,16.33
2018-04-08T08:58:13.613Z,16.37
2018-04-08T08:59:13.608Z,16.47
2018-04-08T09:00:13.626Z,16.48
2018-04-08T09:01:13.638Z,16.50
2018-04-08T09:02:13.642Z,16.52
2018-04-08T09:03:13.670Z,16.57
2018-04-08T09:04:13.666Z,16.45
2018-04-08T09:05:13.676Z,16.48
2018-04-08T09:06:13.687Z,16.52
2018-04-08T09:07:13.699Z,16.66
2018-04-08T09:08:13.751Z,16.70
2018-04-08T09:09:13.823Z,16.72
2018-04-08T09:10:13.740Z,16.77
2018-04-08T09:11:13.756Z,16.77
2018-04-08T09:12:13.766Z,16.65
2018-04-08T09:13:13.773Z,16.77
2018-04-08T09:14:13.810Z,16.78
2018-04-08T09:15:13.893Z,16.81
2018-04-08T09:16:13.803Z,16.75
2018-04-08T09:17:13.810Z,16.70
2018-04-08T09:18:13.835Z,16.84
2018-04-08T09:19:13.834Z,16.87
2018-04-08T09:20:13.996Z,16.88
2018-04-08T09:21:13.859Z,16.87
2018-04-08T09:22:13.867Z,16.82
2018-04-08T09:23:13.899Z,16.87
2018-04-08T09:24:13.898Z,16.87
2018-04-08T09:25:13.921Z,16.91
2018-04-08T09:26:13.910Z,16.88
2018-04-08T09:27:13.925Z,16.85
2018-04-08T09:28:13.957Z,16.92
2018-04-08T09:29:13.946Z,17.05
2018-04-08T09:30:14.461Z,17.12
2018-04-08T09:31:13.986Z,17.27
2018-04-08T09:32:14.961Z,17.18
2018-04-08T09:33:13.986Z,17.21
2018-04-08T09:34:14.007Z,17.21
2018-04-08T09:35:14.015Z,17.18
2018-04-08T09:36:14.041Z,17.18
2018-04-08T09:37:14.040Z,17.25
2018-04-08T09:38:14.060Z,17.36
2018-04-08T09:39:14.067Z,17.39
2018-04-08T09:40:14.159Z,17.40
2018-04-08T09:41:14.084Z,17.40
2018-04-08T09:42:14.101Z,17.43
2018-04-08T09:43:14.123Z,17.42
2018-04-08T09:44:14.157Z,17.46
2018-04-08T09:45:14.142Z,17.57
2018-04-08T09:46:14.142Z,17.51
2018-04-08T09:47:14.195Z,17.70
2018-04-08T09:48:14.173Z,17.65
2018-04-08T09:49:14.181Z,17.62
2018-04-08T09:50:14.289Z,17.70
2018-04-08T09:51:14.202Z,17.80
2018-04-08T09:52:14.215Z,17.94
2018-04-08T09:53:14.259Z,17.87
2018-04-08T09:54:14.234Z,17.94
2018-04-08T09:55:14.251Z,17.94
2018-04-08T09:56:14.265Z,17.92
2018-04-08T09:57:14.280Z,17.98
2018-04-08T09:58:14.286Z,18.11
2018-04-08T09:59:14.313Z,18.02
2018-04-08T10:00:14.316Z,18.04
2018-04-08T10:01:14.321Z,18.05
2018-04-08T10:02:14.336Z,17.98
2018-04-08T10:03:14.356Z,18.09
2018-04-08T10:04:14.359Z,18.16
2018-04-08T10:05:14.975Z,18.20
2018-04-08T10:06:14.387Z,18.28
2018-04-08T10:07:14.400Z,18.25
2018-04-08T10:08:14.405Z,18.23
2018-04-08T10:09:14.417Z,18.21
2018-04-08T10:10:14.450Z,18.17
2018-04-08T10:11:14.496Z,18.42
2018-04-08T10:12:14.458Z,18.34
2018-04-08T10:13:14.469Z,18.51
2018-04-08T10:14:14.494Z,18.57
2018-04-08T10:15:14.506Z,18.57
2018-04-08T10:16:14.505Z,18.64
2018-04-08T10:17:14.518Z,18.62
2018-04-08T10:18:14.524Z,18.65
2018-04-08T10:19:14.539Z,18.82
2018-04-08T10:20:14.551Z,18.90
2018-04-08T10:21:14.590Z,18.90
2018-04-08T10:22:14.575Z,19.10
2018-04-08T10:23:14.627Z,19.07
2018-04-08T10:24:14.613Z,18.96
2018-04-08T10:25:14.725Z,18.96
2018-04-08T10:26:14.635Z,19.06
2018-04-08T10:27:14.648Z,19.13
2018-04-08T10:28:14.663Z,19.23
2018-04-08T10:29:14.729Z,19.20
2018-04-08T10:30:14.698Z,19.31
2018-04-08T10:31:14.691Z,19.38
2018-04-08T10:32:14.706Z,19.32
2018-04-08T10:33:14.716Z,19.49
2018-04-08T10:34:14.732Z,19.53
2018-04-08T10:35:14.769Z,19.64
2018-04-08T10:36:14.768Z,19.62
2018-04-08T10:37:14.791Z,19.55
2018-04-08T10:38:14.852Z,19.53
2018-04-08T10:39:14.812Z,19.52
2018-04-08T10:40:14.815Z,19.50
2018-04-08T10:41:14.827Z,19.43
2018-04-08T10:42:14.858Z,19.52
2018-04-08T10:43:14.851Z,19.49
2018-04-08T10:44:14.914Z,19.49
2018-04-08T10:45:14.882Z,19.57
2018-04-08T10:46:14.892Z,19.65
2018-04-08T10:47:14.906Z,19.82
2018-04-08T10:48:14.914Z,19.95
2018-04-08T10:49:14.941Z,19.83
2018-04-08T10:50:14.944Z,20.10
2018-04-08T10:51:15.014Z,20.17
2018-04-08T10:52:15.016Z,20.20
2018-04-08T10:53:15.015Z,20.25
2018-04-08T10:54:14.999Z,20.37
2018-04-08T10:55:15.029Z,20.48
2018-04-08T10:56:15.030Z,20.54
2018-04-08T10:57:15.048Z,20.58
2018-04-08T10:58:15.102Z,20.60
2018-04-08T10:59:15.071Z,20.71
2018-04-08T11:00:15.103Z,20.73
2018-04-08T11:01:15.117Z,20.94
2018-04-08T11:02:15.109Z,20.96
2018-04-08T11:03:15.169Z,20.98
2018-04-08T11:04:15.144Z,21.18
2018-04-08T11:05:15.164Z,21.21
2018-04-08T11:06:15.180Z,21.34
2018-04-08T11:07:15.196Z,21.34
2018-04-08T11:08:15.230Z,21.48
2018-04-08T11:09:15.269Z,21.86
2018-04-08T11:10:15.272Z,21.99
2018-04-08T11:11:15.260Z,22.17
2018-04-08T11:12:15.289Z,22.23
2018-04-08T11:13:15.311Z,22.39
2018-04-08T11:14:15.314Z,22.66
2018-04-08T11:15:15.341Z,22.70
2018-04-08T11:16:15.366Z,23.14
2018-04-08T11:17:15.377Z,23.31
2018-04-08T11:18:15.417Z,23.38
2018-04-08T11:19:15.416Z,23.38
2018-04-08T11:20:15.429Z,23.52
2018-04-08T11:21:15.458Z,23.53
2018-04-08T11:22:15.478Z,23.67
2018-04-08T11:23:15.497Z,23.78
2018-04-08T11:24:15.546Z,23.96
2018-04-08T11:25:15.551Z,23.90
2018-04-08T11:26:15.561Z,23.86
2018-04-08T11:27:15.583Z,23.81
2018-04-08T11:28:15.601Z,23.97
2018-04-08T11:29:15.630Z,24.12
2018-04-08T11:30:15.650Z,24.29
2018-04-08T11:31:15.673Z,24.33
2018-04-08T11:32:15.701Z,24.51
2018-04-08T11:33:15.709Z,24.56
2018-04-08T11:34:15.742Z,24.44
2018-04-08T11:35:15.762Z,24.30
2018-04-08T11:36:15.771Z,24.31
2018-04-08T11:37:15.800Z,24.26
2018-04-08T11:38:15.847Z,24.42
2018-04-08T11:39:15.851Z,24.55
2018-04-08T11:40:15.873Z,24.79
2018-04-08T11:41:15.948Z,24.83
2018-04-08T11:42:16.521Z,24.71
2018-04-08T11:43:15.936Z,24.87
2018-04-08T11:44:15.965Z,24.93
2018-04-08T11:45:15.981Z,25.08
2018-04-08T11:46:16.015Z,25.09
2018-04-08T11:47:16.083Z,25.16
2018-04-08T11:48:16.051Z,25.19
2018-04-08T11:49:16.087Z,25.11
2018-04-08T11:50:16.107Z,25.19
2018-04-08T11:51:16.151Z,25.19
2018-04-08T11:52:16.193Z,25.41
2018-04-08T11:53:16.169Z,25.71
2018-04-08T11:54:16.199Z,25.79
2018-04-08T11:55:16.241Z,25.89
2018-04-08T11:56:16.243Z,25.98
2018-04-08T11:57:16.285Z,26.12
2018-04-08T11:58:16.287Z,26.27
2018-04-08T11:59:16.305Z,26.21
2018-04-08T12:00:16.337Z,26.34
2018-04-08T12:01:16.360Z,26.32
2018-04-08T12:02:16.389Z,26.42
2018-04-08T12:03:16.404Z,26.36
2018-04-08T12:04:16.437Z,26.49
2018-04-08T12:05:16.448Z,26.36
2018-04-08T12:06:16.489Z,26.34
2018-04-08T12:07:16.501Z,26.17
2018-04-08T12:08:16.524Z,26.36
2018-04-08T12:09:16.555Z,26.32
2018-04-08T12:10:16.581Z,26.54
2018-04-08T12:11:16.591Z,26.47
2018-04-08T12:12:16.629Z,26.27
2018-04-08T12:13:16.648Z,26.00
2018-04-08T12:14:16.666Z,26.34
2018-04-08T12:15:16.715Z,26.39
2018-04-08T12:16:16.719Z,26.36
2018-04-08T12:17:16.738Z,26.47
2018-04-08T12:18:16.772Z,26.61
2018-04-08T12:19:16.819Z,26.36
2018-04-08T12:20:16.820Z,26.41
2018-04-08T12:21:16.836Z,26.69
2018-04-08T12:22:16.865Z,26.46
2018-04-08T12:23:16.892Z,26.27
2018-04-08T12:24:16.923Z,26.41
2018-04-08T12:25:16.944Z,26.66
2018-04-08T12:26:17.005Z,26.87
2018-04-08T12:27:16.988Z,26.84
2018-04-08T12:28:17.002Z,26.86
2018-04-08T12:29:17.034Z,26.96
2018-04-08T12:30:17.061Z,27.03
2018-04-08T12:31:17.116Z,27.23
2018-04-08T12:32:17.109Z,27.23
2018-04-08T12:33:17.144Z,27.31
2018-04-08T12:34:17.150Z,27.52
2018-04-08T12:35:17.177Z,27.81
2018-04-08T12:36:17.209Z,27.86
2018-04-08T12:37:17.262Z,27.93
2018-04-08T12:38:17.255Z,27.77
2018-04-08T12:39:17.277Z,27.68
2018-04-08T12:40:17.305Z,27.91
2018-04-08T12:41:17.323Z,28.01
2018-04-08T12:42:17.344Z,28.03
2018-04-08T12:43:17.365Z,27.98
2018-04-08T12:44:17.393Z,27.76
2018-04-08T12:45:17.428Z,27.58
2018-04-08T12:46:17.458Z,27.90
2018-04-08T12:47:17.470Z,28.06
2018-04-08T12:48:17.506Z,28.20
2018-04-08T12:49:17.530Z,28.32
2018-04-08T12:50:17.542Z,28.32
2018-04-08T12:51:17.593Z,28.46
2018-04-08T12:52:17.597Z,28.57
2018-04-08T12:53:17.623Z,28.62
2018-04-08T12:54:17.649Z,28.77